Keumyang Family — DSNO8 — position and weather

sailwx.info

Track history (hours):
 
Tides and Currents Weather Stations Pressure Air Temp Water Temp Dewpoint Dewpoint Depression Visibility Wind Speed Wind Dir Waves Ship Positions

Keumyang Family

Last reported at 2014-Sep-25 02:12 UTC. Time now 2014-Oct-02 04:37 UTC.
Position N 34°35' E 134°52'.

Length 95 m; draft 4 m.

Type: Cargo ship. MMSI: 441416000.

Date/timePositionNaut miles runAvg speedWind from/ knotsBaromVisibWave heightAir tempDewpointWater temp
2014-Sep-25 02:12N 34°35' E 134°52'1 1.5
2014-Sep-25 01:30N 34°36' E 134°52'0 0.0
2014-Sep-25 00:30N 34°36' E 134°52'4 4.0
2014-Sep-24 23:33N 34°37' E 134°57'8 7.9
2014-Sep-24 22:33N 34°33' E 135°05'10 9.6
2014-Sep-24 21:33N 34°24' E 135°02'8 8.4
2014-Sep-24 20:33N 34°16' E 134°59'7 7.2
2014-Sep-24 19:33N 34°09' E 134°59'8 8.0
2014-Sep-24 18:33N 34°01' E 135°00'  
2014-Sep-22 14:33N 35°34' E 139°50'1 0.6
2014-Sep-22 13:34N 35°34' E 139°51'2 1.8
2014-Sep-22 12:32N 35°32' E 139°52'0 0.0
2014-Sep-22 08:25N 35°32' E 139°52'3 3.8
2014-Sep-22 07:30N 35°34' E 139°56'  
2014-Sep-19 05:33N 35°38' E 139°58'3 2.3
2014-Sep-19 04:28N 35°40' E 139°56'0 0.0
2014-Sep-19 03:28N 35°40' E 139°56'0 0.0
2014-Sep-19 02:31N 35°40' E 139°56'0 0.0
2014-Sep-19 01:28N 35°40' E 139°56'0 0.0
2014-Sep-19 00:28N 35°40' E 139°56'0 0.0
2014-Sep-18 23:31N 35°40' E 139°56'0 0.1
2014-Sep-18 22:33N 35°40' E 139°56'4 3.7
2014-Sep-18 21:33N 35°37' E 139°58'2 1.4
2014-Sep-18 20:28N 35°36' E 139°58'0 0.0
2014-Sep-18 19:28N 35°36' E 139°58'0 0.0
2014-Sep-18 18:31N 35°36' E 139°58'0 0.0
2014-Sep-18 17:28N 35°36' E 139°58'0 0.0
2014-Sep-18 16:25N 35°36' E 139°58'0 0.0
2014-Sep-18 15:31N 35°36' E 139°58'0 0.0
2014-Sep-18 14:19N 35°36' E 139°58'0 0.0
2014-Sep-18 13:28N 35°36' E 139°58'0 0.0
2014-Sep-18 12:28N 35°36' E 139°58'0 0.1
2014-Sep-18 11:31N 35°36' E 139°58'0 0.0
2014-Sep-18 10:28N 35°36' E 139°58'0 0.0
2014-Sep-18 09:31N 35°36' E 139°58'1 0.9
2014-Sep-18 08:33N 35°35' E 139°58'7 6.8
2014-Sep-18 07:33N 35°30' E 139°53'8 7.7
2014-Sep-18 06:33N 35°24' E 139°46'7 6.9
2014-Sep-18 05:33N 35°17' E 139°45'7 6.8
2014-Sep-18 04:33N 35°10' E 139°46'7 7.3
2014-Sep-18 03:33N 35°04' E 139°41'  
Track history (hours):
 
Tides and Currents Weather Stations Pressure Air Temp Water Temp Dewpoint Dewpoint Depression Visibility Wind Speed Wind Dir Waves Ship Positions

Keumyang Family

Last reported at 2014-Sep-25 02:12 UTC. Time now 2014-Oct-02 04:37 UTC.
Position N 34°35' E 134°52'.

Length 95 m; draft 4 m.

Type: Cargo ship. MMSI: 441416000.

Date/timePositionNaut miles runAvg speedWind from/ knotsBaromVisibWave heightAir tempDewpointWater temp
2014-Sep-25 02:12N 34°35' E 134°52'1 1.5
2014-Sep-25 01:30N 34°36' E 134°52'0 0.0
2014-Sep-25 00:30N 34°36' E 134°52'4 4.0
2014-Sep-24 23:33N 34°37' E 134°57'8 7.9
2014-Sep-24 22:33N 34°33' E 135°05'10 9.6
2014-Sep-24 21:33N 34°24' E 135°02'8 8.4
2014-Sep-24 20:33N 34°16' E 134°59'7 7.2
2014-Sep-24 19:33N 34°09' E 134°59'8 8.0
2014-Sep-24 18:33N 34°01' E 135°00'  
2014-Sep-22 14:33N 35°34' E 139°50'1 0.6
2014-Sep-22 13:34N 35°34' E 139°51'2 1.8
2014-Sep-22 12:32N 35°32' E 139°52'0 0.0
2014-Sep-22 08:25N 35°32' E 139°52'3 3.8
2014-Sep-22 07:30N 35°34' E 139°56'  
2014-Sep-19 05:33N 35°38' E 139°58'3 2.3
2014-Sep-19 04:28N 35°40' E 139°56'0 0.0
2014-Sep-19 03:28N 35°40' E 139°56'0 0.0
2014-Sep-19 02:31N 35°40' E 139°56'0 0.0
2014-Sep-19 01:28N 35°40' E 139°56'0 0.0
2014-Sep-19 00:28N 35°40' E 139°56'0 0.0
2014-Sep-18 23:31N 35°40' E 139°56'0 0.1
2014-Sep-18 22:33N 35°40' E 139°56'4 3.7
2014-Sep-18 21:33N 35°37' E 139°58'2 1.4
2014-Sep-18 20:28N 35°36' E 139°58'0 0.0
2014-Sep-18 19:28N 35°36' E 139°58'0 0.0
2014-Sep-18 18:31N 35°36' E 139°58'0 0.0
2014-Sep-18 17:28N 35°36' E 139°58'0 0.0
2014-Sep-18 16:25N 35°36' E 139°58'0 0.0
2014-Sep-18 15:31N 35°36' E 139°58'0 0.0
2014-Sep-18 14:19N 35°36' E 139°58'0 0.0
2014-Sep-18 13:28N 35°36' E 139°58'0 0.0
2014-Sep-18 12:28N 35°36' E 139°58'0 0.1
2014-Sep-18 11:31N 35°36' E 139°58'0 0.0
2014-Sep-18 10:28N 35°36' E 139°58'0 0.0
2014-Sep-18 09:31N 35°36' E 139°58'1 0.9
2014-Sep-18 08:33N 35°35' E 139°58'7 6.8
2014-Sep-18 07:33N 35°30' E 139°53'8 7.7
2014-Sep-18 06:33N 35°24' E 139°46'7 6.9
2014-Sep-18 05:33N 35°17' E 139°45'7 6.8
2014-Sep-18 04:33N 35°10' E 139°46'7 7.3
2014-Sep-18 03:33N 35°04' E 139°41'  

Dump ship's entire track history